sensor_id;sensor_type;location;lat;lon;timestamp;P1;durP1;ratioP1;P2;durP2;ratioP2
2944;SDS011;1482;51.398;7.128;2023-06-10T00:00:17;9.60;;;8.70;;
2944;SDS011;1482;51.398;7.128;2023-06-10T00:02:42;9.00;;;7.80;;
2944;SDS011;1482;51.398;7.128;2023-06-10T00:05:09;10.07;;;9.17;;
2944;SDS011;1482;51.398;7.128;2023-06-10T00:07:34;10.77;;;8.73;;
2944;SDS011;1482;51.398;7.128;2023-06-10T00:10:04;11.03;;;9.67;;
2944;SDS011;1482;51.398;7.128;2023-06-10T00:12:31;9.63;;;8.80;;
2944;SDS011;1482;51.398;7.128;2023-06-10T00:15:02;10.27;;;7.70;;
2944;SDS011;1482;51.398;7.128;2023-06-10T00:17:28;9.27;;;8.37;;
2944;SDS011;1482;51.398;7.128;2023-06-10T00:19:54;10.40;;;9.33;;
2944;SDS011;1482;51.398;7.128;2023-06-10T00:22:20;11.87;;;8.80;;
2944;SDS011;1482;51.398;7.128;2023-06-10T00:24:47;9.47;;;8.57;;
2944;SDS011;1482;51.398;7.128;2023-06-10T00:27:12;10.40;;;9.60;;
2944;SDS011;1482;51.398;7.128;2023-06-10T00:29:38;9.17;;;7.93;;
2944;SDS011;1482;51.398;7.128;2023-06-10T00:32:04;9.80;;;8.90;;
2944;SDS011;1482;51.398;7.128;2023-06-10T00:34:30;9.57;;;8.67;;
2944;SDS011;1482;51.398;7.128;2023-06-10T00:36:57;9.47;;;8.60;;
2944;SDS011;1482;51.398;7.128;2023-06-10T00:39:22;9.17;;;8.27;;
2944;SDS011;1482;51.398;7.128;2023-06-10T00:41:48;10.03;;;9.00;;
2944;SDS011;1482;51.398;7.128;2023-06-10T00:44:13;10.00;;;8.40;;
2944;SDS011;1482;51.398;7.128;2023-06-10T00:46:39;9.80;;;9.00;;
2944;SDS011;1482;51.398;7.128;2023-06-10T00:49:05;9.40;;;8.37;;
2944;SDS011;1482;51.398;7.128;2023-06-10T00:51:31;14.93;;;10.07;;
2944;SDS011;1482;51.398;7.128;2023-06-10T00:53:56;10.27;;;9.30;;
2944;SDS011;1482;51.398;7.128;2023-06-10T00:56:22;8.97;;;8.13;;
2944;SDS011;1482;51.398;7.128;2023-06-10T00:58:48;9.80;;;8.80;;
2944;SDS011;1482;51.398;7.128;2023-06-10T01:01:14;9.80;;;9.00;;
2944;SDS011;1482;51.398;7.128;2023-06-10T01:03:39;9.43;;;8.60;;
2944;SDS011;1482;51.398;7.128;2023-06-10T01:06:07;11.80;;;9.00;;
2944;SDS011;1482;51.398;7.128;2023-06-10T01:09:02;11.17;;;8.97;;
2944;SDS011;1482;51.398;7.128;2023-06-10T01:11:43;9.93;;;8.93;;
2944;SDS011;1482;51.398;7.128;2023-06-10T01:14:12;10.33;;;9.30;;
2944;SDS011;1482;51.398;7.128;2023-06-10T01:16:39;9.93;;;8.93;;
2944;SDS011;1482;51.398;7.128;2023-06-10T01:19:05;11.03;;;9.93;;
2944;SDS011;1482;51.398;7.128;2023-06-10T01:21:32;12.03;;;9.97;;
2944;SDS011;1482;51.398;7.128;2023-06-10T01:23:58;10.20;;;9.30;;
2944;SDS011;1482;51.398;7.128;2023-06-10T01:26:28;9.97;;;8.97;;
2944;SDS011;1482;51.398;7.128;2023-06-10T01:29:00;12.70;;;9.93;;
2944;SDS011;1482;51.398;7.128;2023-06-10T01:34:10;9.90;;;9.00;;
2944;SDS011;1482;51.398;7.128;2023-06-10T01:36:40;12.30;;;9.90;;
2944;SDS011;1482;51.398;7.128;2023-06-10T01:39:06;9.97;;;8.97;;
2944;SDS011;1482;51.398;7.128;2023-06-10T01:41:34;12.83;;;8.90;;
2944;SDS011;1482;51.398;7.128;2023-06-10T01:44:01;10.37;;;9.30;;
2944;SDS011;1482;51.398;7.128;2023-06-10T01:46:27;9.87;;;8.87;;
2944;SDS011;1482;51.398;7.128;2023-06-10T01:48:53;10.70;;;9.70;;
2944;SDS011;1482;51.398;7.128;2023-06-10T01:51:18;10.40;;;9.40;;
2944;SDS011;1482;51.398;7.128;2023-06-10T01:53:44;10.57;;;9.47;;
2944;SDS011;1482;51.398;7.128;2023-06-10T01:56:09;11.37;;;10.17;;
2944;SDS011;1482;51.398;7.128;2023-06-10T01:58:35;11.40;;;10.30;;
2944;SDS011;1482;51.398;7.128;2023-06-10T02:01:01;11.87;;;9.77;;
2944;SDS011;1482;51.398;7.128;2023-06-10T02:03:26;11.23;;;10.13;;
2944;SDS011;1482;51.398;7.128;2023-06-10T02:05:52;11.20;;;10.20;;
2944;SDS011;1482;51.398;7.128;2023-06-10T02:08:17;12.40;;;11.10;;
2944;SDS011;1482;51.398;7.128;2023-06-10T02:10:43;12.13;;;9.93;;
2944;SDS011;1482;51.398;7.128;2023-06-10T02:13:09;13.07;;;10.67;;
2944;SDS011;1482;51.398;7.128;2023-06-10T02:15:34;12.07;;;10.87;;
2944;SDS011;1482;51.398;7.128;2023-06-10T02:18:00;15.50;;;10.50;;
2944;SDS011;1482;51.398;7.128;2023-06-10T02:20:25;11.17;;;10.13;;
2944;SDS011;1482;51.398;7.128;2023-06-10T02:22:51;12.27;;;11.13;;
2944;SDS011;1482;51.398;7.128;2023-06-10T02:25:17;10.77;;;9.77;;
2944;SDS011;1482;51.398;7.128;2023-06-10T02:27:42;11.00;;;9.90;;
2944;SDS011;1482;51.398;7.128;2023-06-10T02:30:08;11.10;;;10.10;;
2944;SDS011;1482;51.398;7.128;2023-06-10T02:32:37;13.93;;;11.43;;
2944;SDS011;1482;51.398;7.128;2023-06-10T02:35:03;10.70;;;9.70;;
2944;SDS011;1482;51.398;7.128;2023-06-10T02:37:29;15.23;;;11.87;;
2944;SDS011;1482;51.398;7.128;2023-06-10T02:39:54;13.20;;;11.73;;
2944;SDS011;1482;51.398;7.128;2023-06-10T02:42:20;12.23;;;11.03;;
2944;SDS011;1482;51.398;7.128;2023-06-10T02:44:45;12.53;;;11.43;;
2944;SDS011;1482;51.398;7.128;2023-06-10T02:47:11;13.33;;;10.63;;
2944;SDS011;1482;51.398;7.128;2023-06-10T02:49:40;12.70;;;11.60;;
2944;SDS011;1482;51.398;7.128;2023-06-10T02:52:05;14.03;;;11.00;;
2944;SDS011;1482;51.398;7.128;2023-06-10T02:54:32;13.30;;;11.73;;
2944;SDS011;1482;51.398;7.128;2023-06-10T02:56:57;11.90;;;10.80;;
2944;SDS011;1482;51.398;7.128;2023-06-10T02:59:23;11.73;;;10.63;;
2944;SDS011;1482;51.398;7.128;2023-06-10T03:01:48;12.33;;;11.33;;
2944;SDS011;1482;51.398;7.128;2023-06-10T03:04:14;15.60;;;11.90;;
2944;SDS011;1482;51.398;7.128;2023-06-10T03:06:39;12.20;;;11.10;;
2944;SDS011;1482;51.398;7.128;2023-06-10T03:09:10;15.77;;;14.17;;
2944;SDS011;1482;51.398;7.128;2023-06-10T03:11:36;12.13;;;10.93;;
2944;SDS011;1482;51.398;7.128;2023-06-10T03:14:01;12.13;;;10.93;;
2944;SDS011;1482;51.398;7.128;2023-06-10T03:16:27;13.20;;;12.00;;
2944;SDS011;1482;51.398;7.128;2023-06-10T03:18:52;13.47;;;12.17;;
2944;SDS011;1482;51.398;7.128;2023-06-10T03:21:18;13.13;;;11.83;;
2944;SDS011;1482;51.398;7.128;2023-06-10T03:23:44;13.10;;;11.27;;
2944;SDS011;1482;51.398;7.128;2023-06-10T03:26:10;14.10;;;12.70;;
2944;SDS011;1482;51.398;7.128;2023-06-10T03:28:37;13.73;;;11.77;;
2944;SDS011;1482;51.398;7.128;2023-06-10T03:31:03;14.50;;;12.87;;
2944;SDS011;1482;51.398;7.128;2023-06-10T03:33:28;12.53;;;11.23;;
2944;SDS011;1482;51.398;7.128;2023-06-10T03:35:55;13.37;;;12.07;;
2944;SDS011;1482;51.398;7.128;2023-06-10T03:38:20;13.07;;;11.70;;
2944;SDS011;1482;51.398;7.128;2023-06-10T03:40:46;15.53;;;13.97;;
2944;SDS011;1482;51.398;7.128;2023-06-10T03:43:12;14.37;;;12.93;;
2944;SDS011;1482;51.398;7.128;2023-06-10T03:45:37;13.63;;;11.97;;
2944;SDS011;1482;51.398;7.128;2023-06-10T03:48:03;15.07;;;13.20;;
2944;SDS011;1482;51.398;7.128;2023-06-10T03:50:29;13.40;;;12.10;;
2944;SDS011;1482;51.398;7.128;2023-06-10T03:52:55;18.33;;;13.17;;
2944;SDS011;1482;51.398;7.128;2023-06-10T03:55:20;14.40;;;13.03;;
2944;SDS011;1482;51.398;7.128;2023-06-10T03:57:47;13.53;;;12.17;;
2944;SDS011;1482;51.398;7.128;2023-06-10T04:00:13;15.00;;;13.50;;
2944;SDS011;1482;51.398;7.128;2023-06-10T04:02:40;17.17;;;12.43;;
2944;SDS011;1482;51.398;7.128;2023-06-10T04:05:13;13.97;;;12.83;;
2944;SDS011;1482;51.398;7.128;2023-06-10T04:07:40;14.67;;;13.10;;
2944;SDS011;1482;51.398;7.128;2023-06-10T04:10:07;19.43;;;13.00;;
2944;SDS011;1482;51.398;7.128;2023-06-10T04:12:33;14.70;;;13.40;;
2944;SDS011;1482;51.398;7.128;2023-06-10T04:14:59;17.13;;;14.80;;
2944;SDS011;1482;51.398;7.128;2023-06-10T04:17:28;14.53;;;13.20;;
2944;SDS011;1482;51.398;7.128;2023-06-10T04:19:53;15.17;;;13.73;;
2944;SDS011;1482;51.398;7.128;2023-06-10T04:22:19;14.33;;;12.87;;
2944;SDS011;1482;51.398;7.128;2023-06-10T04:24:45;16.60;;;12.37;;
2944;SDS011;1482;51.398;7.128;2023-06-10T04:27:11;14.47;;;12.93;;
2944;SDS011;1482;51.398;7.128;2023-06-10T04:29:36;15.10;;;12.43;;
2944;SDS011;1482;51.398;7.128;2023-06-10T04:32:02;13.97;;;12.50;;
2944;SDS011;1482;51.398;7.128;2023-06-10T04:34:28;15.10;;;12.40;;
2944;SDS011;1482;51.398;7.128;2023-06-10T04:36:53;13.03;;;11.83;;
2944;SDS011;1482;51.398;7.128;2023-06-10T04:39:19;14.63;;;13.10;;
2944;SDS011;1482;51.398;7.128;2023-06-10T04:41:45;13.50;;;12.30;;
2944;SDS011;1482;51.398;7.128;2023-06-10T04:44:11;13.83;;;12.53;;
2944;SDS011;1482;51.398;7.128;2023-06-10T04:46:37;13.27;;;12.27;;
2944;SDS011;1482;51.398;7.128;2023-06-10T04:49:05;16.50;;;12.57;;
2944;SDS011;1482;51.398;7.128;2023-06-10T04:51:30;14.40;;;13.03;;
2944;SDS011;1482;51.398;7.128;2023-06-10T04:53:59;16.00;;;14.40;;
2944;SDS011;1482;51.398;7.128;2023-06-10T04:56:28;14.40;;;12.40;;
2944;SDS011;1482;51.398;7.128;2023-06-10T04:58:55;13.80;;;12.57;;
2944;SDS011;1482;51.398;7.128;2023-06-10T05:01:21;13.57;;;12.37;;
2944;SDS011;1482;51.398;7.128;2023-06-10T05:03:47;13.90;;;12.80;;
2944;SDS011;1482;51.398;7.128;2023-06-10T05:06:13;15.80;;;14.50;;
2944;SDS011;1482;51.398;7.128;2023-06-10T05:08:38;14.80;;;13.50;;
2944;SDS011;1482;51.398;7.128;2023-06-10T05:11:04;13.67;;;12.57;;
2944;SDS011;1482;51.398;7.128;2023-06-10T05:13:29;15.73;;;14.00;;
2944;SDS011;1482;51.398;7.128;2023-06-10T05:15:55;16.07;;;14.47;;
2944;SDS011;1482;51.398;7.128;2023-06-10T05:18:20;16.70;;;13.87;;
2944;SDS011;1482;51.398;7.128;2023-06-10T05:20:46;25.87;;;15.33;;
2944;SDS011;1482;51.398;7.128;2023-06-10T05:23:12;15.07;;;13.47;;
2944;SDS011;1482;51.398;7.128;2023-06-10T05:25:37;16.03;;;14.53;;
2944;SDS011;1482;51.398;7.128;2023-06-10T05:28:03;16.87;;;13.67;;
2944;SDS011;1482;51.398;7.128;2023-06-10T05:30:28;16.40;;;14.90;;
2944;SDS011;1482;51.398;7.128;2023-06-10T05:32:54;14.47;;;13.27;;
2944;SDS011;1482;51.398;7.128;2023-06-10T05:35:21;15.30;;;13.93;;
2944;SDS011;1482;51.398;7.128;2023-06-10T05:37:46;14.53;;;13.03;;
2944;SDS011;1482;51.398;7.128;2023-06-10T05:40:12;17.43;;;15.20;;
2944;SDS011;1482;51.398;7.128;2023-06-10T05:42:38;15.00;;;13.50;;
2944;SDS011;1482;51.398;7.128;2023-06-10T05:45:05;15.03;;;13.53;;
2944;SDS011;1482;51.398;7.128;2023-06-10T05:47:31;14.80;;;13.17;;
2944;SDS011;1482;51.398;7.128;2023-06-10T05:49:57;14.93;;;13.23;;
2944;SDS011;1482;51.398;7.128;2023-06-10T05:52:22;15.10;;;13.50;;
2944;SDS011;1482;51.398;7.128;2023-06-10T05:54:48;14.40;;;13.03;;
2944;SDS011;1482;51.398;7.128;2023-06-10T05:57:15;14.87;;;13.37;;
2944;SDS011;1482;51.398;7.128;2023-06-10T05:59:40;21.73;;;13.40;;
2944;SDS011;1482;51.398;7.128;2023-06-10T06:02:06;14.67;;;13.07;;
2944;SDS011;1482;51.398;7.128;2023-06-10T06:04:31;14.37;;;13.00;;
2944;SDS011;1482;51.398;7.128;2023-06-10T06:06:57;14.33;;;12.93;;
2944;SDS011;1482;51.398;7.128;2023-06-10T06:09:23;13.57;;;12.30;;
2944;SDS011;1482;51.398;7.128;2023-06-10T06:11:48;14.30;;;13.03;;
2944;SDS011;1482;51.398;7.128;2023-06-10T06:14:14;13.60;;;11.20;;
2944;SDS011;1482;51.398;7.128;2023-06-10T06:16:42;14.40;;;12.20;;
2944;SDS011;1482;51.398;7.128;2023-06-10T06:19:08;13.70;;;12.33;;
2944;SDS011;1482;51.398;7.128;2023-06-10T06:21:34;13.20;;;11.90;;
2944;SDS011;1482;51.398;7.128;2023-06-10T06:24:00;13.20;;;11.73;;
2944;SDS011;1482;51.398;7.128;2023-06-10T06:26:25;12.93;;;11.63;;
2944;SDS011;1482;51.398;7.128;2023-06-10T06:28:51;13.07;;;11.67;;
2944;SDS011;1482;51.398;7.128;2023-06-10T06:31:17;11.33;;;10.30;;
2944;SDS011;1482;51.398;7.128;2023-06-10T06:33:43;18.07;;;10.90;;
2944;SDS011;1482;51.398;7.128;2023-06-10T06:36:08;18.10;;;12.13;;
2944;SDS011;1482;51.398;7.128;2023-06-10T06:38:34;12.60;;;10.90;;
2944;SDS011;1482;51.398;7.128;2023-06-10T06:40:59;13.53;;;12.00;;
2944;SDS011;1482;51.398;7.128;2023-06-10T06:43:28;11.60;;;10.50;;
2944;SDS011;1482;51.398;7.128;2023-06-10T06:45:55;11.07;;;10.13;;
2944;SDS011;1482;51.398;7.128;2023-06-10T06:48:22;11.63;;;10.63;;
2944;SDS011;1482;51.398;7.128;2023-06-10T06:50:47;11.20;;;10.10;;
2944;SDS011;1482;51.398;7.128;2023-06-10T06:53:13;13.57;;;10.33;;
2944;SDS011;1482;51.398;7.128;2023-06-10T06:55:38;10.43;;;9.53;;
2944;SDS011;1482;51.398;7.128;2023-06-10T06:58:04;11.97;;;10.63;;
2944;SDS011;1482;51.398;7.128;2023-06-10T07:00:30;10.07;;;9.27;;
2944;SDS011;1482;51.398;7.128;2023-06-10T07:02:56;9.70;;;8.80;;
2944;SDS011;1482;51.398;7.128;2023-06-10T07:05:22;9.60;;;8.70;;
2944;SDS011;1482;51.398;7.128;2023-06-10T07:07:48;10.07;;;8.97;;
2944;SDS011;1482;51.398;7.128;2023-06-10T07:10:19;10.00;;;8.40;;
2944;SDS011;1482;51.398;7.128;2023-06-10T07:12:46;9.73;;;8.80;;
2944;SDS011;1482;51.398;7.128;2023-06-10T07:15:13;9.77;;;8.87;;
2944;SDS011;1482;51.398;7.128;2023-06-10T07:17:38;9.77;;;8.87;;
2944;SDS011;1482;51.398;7.128;2023-06-10T07:20:04;9.30;;;8.40;;
2944;SDS011;1482;51.398;7.128;2023-06-10T07:22:30;9.87;;;9.07;;
2944;SDS011;1482;51.398;7.128;2023-06-10T07:24:56;9.03;;;8.10;;
2944;SDS011;1482;51.398;7.128;2023-06-10T07:27:22;10.73;;;8.87;;
2944;SDS011;1482;51.398;7.128;2023-06-10T07:29:48;8.73;;;7.83;;
2944;SDS011;1482;51.398;7.128;2023-06-10T07:32:13;8.70;;;7.90;;
2944;SDS011;1482;51.398;7.128;2023-06-10T07:34:39;8.57;;;7.47;;
2944;SDS011;1482;51.398;7.128;2023-06-10T07:37:05;9.10;;;7.13;;
2944;SDS011;1482;51.398;7.128;2023-06-10T07:39:30;8.00;;;7.30;;
2944;SDS011;1482;51.398;7.128;2023-06-10T07:41:56;11.23;;;8.10;;
2944;SDS011;1482;51.398;7.128;2023-06-10T07:44:22;9.10;;;8.20;;
2944;SDS011;1482;51.398;7.128;2023-06-10T07:46:48;7.97;;;7.27;;
2944;SDS011;1482;51.398;7.128;2023-06-10T07:49:13;12.33;;;8.40;;
2944;SDS011;1482;51.398;7.128;2023-06-10T07:51:39;8.47;;;7.77;;
2944;SDS011;1482;51.398;7.128;2023-06-10T07:54:05;8.90;;;8.10;;
2944;SDS011;1482;51.398;7.128;2023-06-10T07:56:30;10.17;;;7.70;;
2944;SDS011;1482;51.398;7.128;2023-06-10T07:58:56;10.90;;;7.70;;
2944;SDS011;1482;51.398;7.128;2023-06-10T08:01:22;9.53;;;7.17;;
2944;SDS011;1482;51.398;7.128;2023-06-10T08:03:48;10.20;;;7.27;;
2944;SDS011;1482;51.398;7.128;2023-06-10T08:06:14;10.03;;;7.50;;
2944;SDS011;1482;51.398;7.128;2023-06-10T08:08:41;8.90;;;7.97;;
2944;SDS011;1482;51.398;7.128;2023-06-10T08:11:08;7.50;;;6.80;;
2944;SDS011;1482;51.398;7.128;2023-06-10T08:13:35;8.90;;;6.67;;
2944;SDS011;1482;51.398;7.128;2023-06-10T08:16:01;7.83;;;7.20;;
2944;SDS011;1482;51.398;7.128;2023-06-10T08:18:27;8.37;;;7.70;;
2944;SDS011;1482;51.398;7.128;2023-06-10T08:20:54;10.27;;;7.83;;
2944;SDS011;1482;51.398;7.128;2023-06-10T08:23:20;9.00;;;8.10;;
2944;SDS011;1482;51.398;7.128;2023-06-10T08:25:46;10.37;;;7.37;;
2944;SDS011;1482;51.398;7.128;2023-06-10T08:28:11;7.23;;;6.63;;
2944;SDS011;1482;51.398;7.128;2023-06-10T08:30:37;10.00;;;7.67;;
2944;SDS011;1482;51.398;7.128;2023-06-10T08:33:02;11.30;;;8.20;;
2944;SDS011;1482;51.398;7.128;2023-06-10T08:35:28;8.23;;;7.40;;
2944;SDS011;1482;51.398;7.128;2023-06-10T08:37:54;8.50;;;7.70;;
2944;SDS011;1482;51.398;7.128;2023-06-10T08:40:20;9.30;;;8.40;;
2944;SDS011;1482;51.398;7.128;2023-06-10T08:42:48;7.93;;;7.23;;
2944;SDS011;1482;51.398;7.128;2023-06-10T08:45:18;8.60;;;7.80;;
2944;SDS011;1482;51.398;7.128;2023-06-10T08:47:48;7.47;;;6.97;;
2944;SDS011;1482;51.398;7.128;2023-06-10T08:50:17;8.10;;;7.40;;
2944;SDS011;1482;51.398;7.128;2023-06-10T08:52:44;12.37;;;7.10;;
2944;SDS011;1482;51.398;7.128;2023-06-10T08:55:18;8.07;;;7.33;;
2944;SDS011;1482;51.398;7.128;2023-06-10T08:57:51;9.57;;;8.60;;
2944;SDS011;1482;51.398;7.128;2023-06-10T09:00:17;9.10;;;8.23;;
2944;SDS011;1482;51.398;7.128;2023-06-10T09:02:43;9.00;;;7.13;;
2944;SDS011;1482;51.398;7.128;2023-06-10T09:05:09;10.67;;;8.53;;
2944;SDS011;1482;51.398;7.128;2023-06-10T09:07:35;8.50;;;7.77;;
2944;SDS011;1482;51.398;7.128;2023-06-10T09:10:01;8.10;;;7.30;;
2944;SDS011;1482;51.398;7.128;2023-06-10T09:12:32;7.83;;;7.07;;
2944;SDS011;1482;51.398;7.128;2023-06-10T09:14:59;8.93;;;7.40;;
2944;SDS011;1482;51.398;7.128;2023-06-10T09:17:24;10.90;;;7.70;;
2944;SDS011;1482;51.398;7.128;2023-06-10T09:19:50;8.50;;;7.70;;
2944;SDS011;1482;51.398;7.128;2023-06-10T09:22:18;10.50;;;7.77;;
2944;SDS011;1482;51.398;7.128;2023-06-10T09:24:44;12.97;;;7.77;;
2944;SDS011;1482;51.398;7.128;2023-06-10T09:27:11;8.10;;;7.50;;
2944;SDS011;1482;51.398;7.128;2023-06-10T09:32:13;8.00;;;7.30;;
2944;SDS011;1482;51.398;7.128;2023-06-10T09:34:39;7.37;;;6.77;;
2944;SDS011;1482;51.398;7.128;2023-06-10T09:37:05;14.60;;;7.40;;
2944;SDS011;1482;51.398;7.128;2023-06-10T09:39:31;8.70;;;7.87;;
2944;SDS011;1482;51.398;7.128;2023-06-10T09:41:56;9.27;;;6.90;;
2944;SDS011;1482;51.398;7.128;2023-06-10T09:44:22;8.17;;;7.10;;
2944;SDS011;1482;51.398;7.128;2023-06-10T09:46:50;8.83;;;7.93;;
2944;SDS011;1482;51.398;7.128;2023-06-10T09:49:18;10.53;;;7.60;;
2944;SDS011;1482;51.398;7.128;2023-06-10T09:51:50;8.63;;;7.17;;
2944;SDS011;1482;51.398;7.128;2023-06-10T09:54:19;7.50;;;7.00;;
2944;SDS011;1482;51.398;7.128;2023-06-10T09:56:46;8.40;;;7.83;;
2944;SDS011;1482;51.398;7.128;2023-06-10T09:59:13;7.50;;;6.90;;
2944;SDS011;1482;51.398;7.128;2023-06-10T10:01:39;14.53;;;8.30;;
2944;SDS011;1482;51.398;7.128;2023-06-10T10:04:05;8.63;;;7.70;;
2944;SDS011;1482;51.398;7.128;2023-06-10T10:06:30;7.00;;;6.23;;
2944;SDS011;1482;51.398;7.128;2023-06-10T10:08:56;7.23;;;6.60;;
2944;SDS011;1482;51.398;7.128;2023-06-10T10:11:22;12.20;;;8.10;;
2944;SDS011;1482;51.398;7.128;2023-06-10T10:13:52;8.13;;;6.93;;
2944;SDS011;1482;51.398;7.128;2023-06-10T10:16:19;9.40;;;7.57;;
2944;SDS011;1482;51.398;7.128;2023-06-10T10:18:51;10.23;;;7.43;;
2944;SDS011;1482;51.398;7.128;2023-06-10T10:21:21;8.87;;;8.17;;
2944;SDS011;1482;51.398;7.128;2023-06-10T10:26:27;8.00;;;7.30;;
2944;SDS011;1482;51.398;7.128;2023-06-10T10:29:07;8.27;;;7.57;;
2944;SDS011;1482;51.398;7.128;2023-06-10T10:31:37;7.73;;;7.03;;
2944;SDS011;1482;51.398;7.128;2023-06-10T10:34:07;7.03;;;6.43;;
2944;SDS011;1482;51.398;7.128;2023-06-10T10:36:37;7.47;;;6.80;;
2944;SDS011;1482;51.398;7.128;2023-06-10T10:39:04;9.90;;;8.17;;
2944;SDS011;1482;51.398;7.128;2023-06-10T10:41:30;7.90;;;7.20;;
2944;SDS011;1482;51.398;7.128;2023-06-10T10:43:57;11.40;;;7.27;;
2944;SDS011;1482;51.398;7.128;2023-06-10T10:46:23;11.07;;;7.97;;
2944;SDS011;1482;51.398;7.128;2023-06-10T10:48:52;11.23;;;8.30;;
2944;SDS011;1482;51.398;7.128;2023-06-10T10:51:19;8.90;;;8.10;;
2944;SDS011;1482;51.398;7.128;2023-06-10T10:54:02;8.17;;;7.43;;
2944;SDS011;1482;51.398;7.128;2023-06-10T10:56:40;7.50;;;6.90;;
2944;SDS011;1482;51.398;7.128;2023-06-10T11:04:51;7.70;;;7.10;;
2944;SDS011;1482;51.398;7.128;2023-06-10T11:07:20;7.83;;;7.03;;
2944;SDS011;1482;51.398;7.128;2023-06-10T11:09:57;6.93;;;6.33;;
2944;SDS011;1482;51.398;7.128;2023-06-10T11:12:22;8.60;;;7.87;;
2944;SDS011;1482;51.398;7.128;2023-06-10T11:14:53;9.10;;;8.20;;
2944;SDS011;1482;51.398;7.128;2023-06-10T11:17:20;7.97;;;7.30;;
2944;SDS011;1482;51.398;7.128;2023-06-10T11:19:46;8.47;;;7.57;;
2944;SDS011;1482;51.398;7.128;2023-06-10T11:22:15;10.00;;;8.10;;
2944;SDS011;1482;51.398;7.128;2023-06-10T11:24:46;8.30;;;7.47;;
2944;SDS011;1482;51.398;7.128;2023-06-10T11:27:16;7.13;;;6.53;;
2944;SDS011;1482;51.398;7.128;2023-06-10T11:32:31;10.80;;;8.20;;
2944;SDS011;1482;51.398;7.128;2023-06-10T11:34:58;8.80;;;7.03;;
2944;SDS011;1482;51.398;7.128;2023-06-10T11:37:24;12.07;;;7.57;;
2944;SDS011;1482;51.398;7.128;2023-06-10T11:39:53;8.00;;;7.20;;
2944;SDS011;1482;51.398;7.128;2023-06-10T11:42:20;9.60;;;8.03;;
2944;SDS011;1482;51.398;7.128;2023-06-10T11:44:49;8.03;;;7.27;;
2944;SDS011;1482;51.398;7.128;2023-06-10T11:47:16;10.43;;;7.97;;
2944;SDS011;1482;51.398;7.128;2023-06-10T11:49:46;9.03;;;8.13;;
2944;SDS011;1482;51.398;7.128;2023-06-10T11:52:28;11.53;;;8.23;;
2944;SDS011;1482;51.398;7.128;2023-06-10T11:54:54;8.33;;;7.53;;
2944;SDS011;1482;51.398;7.128;2023-06-10T11:57:20;8.17;;;7.47;;
2944;SDS011;1482;51.398;7.128;2023-06-10T11:59:46;10.30;;;7.63;;
2944;SDS011;1482;51.398;7.128;2023-06-10T12:02:15;8.40;;;7.60;;
2944;SDS011;1482;51.398;7.128;2023-06-10T12:04:41;8.63;;;7.83;;
2944;SDS011;1482;51.398;7.128;2023-06-10T12:07:07;8.57;;;7.33;;
2944;SDS011;1482;51.398;7.128;2023-06-10T12:09:32;8.70;;;7.80;;
2944;SDS011;1482;51.398;7.128;2023-06-10T12:17:19;9.20;;;8.40;;
2944;SDS011;1482;51.398;7.128;2023-06-10T12:19:46;8.67;;;7.97;;
2944;SDS011;1482;51.398;7.128;2023-06-10T12:22:13;7.73;;;7.03;;
2944;SDS011;1482;51.398;7.128;2023-06-10T12:24:45;8.60;;;7.80;;
2944;SDS011;1482;51.398;7.128;2023-06-10T12:27:28;12.30;;;8.10;;
2944;SDS011;1482;51.398;7.128;2023-06-10T12:29:55;8.87;;;8.20;;
2944;SDS011;1482;51.398;7.128;2023-06-10T12:32:35;9.03;;;8.33;;
2944;SDS011;1482;51.398;7.128;2023-06-10T12:35:06;10.53;;;9.63;;
2944;SDS011;1482;51.398;7.128;2023-06-10T12:37:32;9.07;;;8.37;;
2944;SDS011;1482;51.398;7.128;2023-06-10T12:40:03;9.00;;;8.10;;
2944;SDS011;1482;51.398;7.128;2023-06-10T12:42:35;9.70;;;7.97;;
2944;SDS011;1482;51.398;7.128;2023-06-10T12:45:01;9.63;;;8.63;;
2944;SDS011;1482;51.398;7.128;2023-06-10T12:47:31;8.47;;;7.77;;
2944;SDS011;1482;51.398;7.128;2023-06-10T12:50:03;8.80;;;7.90;;
2944;SDS011;1482;51.398;7.128;2023-06-10T12:52:29;8.30;;;7.60;;
2944;SDS011;1482;51.398;7.128;2023-06-10T12:54:54;8.70;;;7.97;;
2944;SDS011;1482;51.398;7.128;2023-06-10T12:57:21;9.50;;;8.60;;
2944;SDS011;1482;51.398;7.128;2023-06-10T12:59:47;10.47;;;7.60;;
2944;SDS011;1482;51.398;7.128;2023-06-10T13:02:17;8.33;;;7.53;;
2944;SDS011;1482;51.398;7.128;2023-06-10T13:04:44;8.87;;;8.00;;
2944;SDS011;1482;51.398;7.128;2023-06-10T13:07:10;9.03;;;8.10;;
2944;SDS011;1482;51.398;7.128;2023-06-10T13:09:36;8.83;;;7.93;;
2944;SDS011;1482;51.398;7.128;2023-06-10T13:12:02;9.27;;;8.47;;
2944;SDS011;1482;51.398;7.128;2023-06-10T13:14:28;11.43;;;8.63;;
2944;SDS011;1482;51.398;7.128;2023-06-10T13:16:53;8.13;;;7.53;;
2944;SDS011;1482;51.398;7.128;2023-06-10T13:19:20;9.90;;;9.00;;
2944;SDS011;1482;51.398;7.128;2023-06-10T13:21:46;8.20;;;7.50;;
2944;SDS011;1482;51.398;7.128;2023-06-10T13:24:12;9.53;;;8.23;;
2944;SDS011;1482;51.398;7.128;2023-06-10T13:26:38;9.33;;;7.77;;
2944;SDS011;1482;51.398;7.128;2023-06-10T13:29:04;8.53;;;7.73;;
2944;SDS011;1482;51.398;7.128;2023-06-10T13:31:30;9.97;;;8.77;;
2944;SDS011;1482;51.398;7.128;2023-06-10T13:33:57;8.33;;;7.63;;
2944;SDS011;1482;51.398;7.128;2023-06-10T13:36:23;8.13;;;7.43;;
2944;SDS011;1482;51.398;7.128;2023-06-10T13:38:49;9.37;;;7.50;;
2944;SDS011;1482;51.398;7.128;2023-06-10T13:41:17;11.23;;;7.17;;
2944;SDS011;1482;51.398;7.128;2023-06-10T13:43:42;8.83;;;8.13;;
2944;SDS011;1482;51.398;7.128;2023-06-10T13:46:08;8.33;;;7.60;;
2944;SDS011;1482;51.398;7.128;2023-06-10T13:48:34;8.53;;;7.40;;
2944;SDS011;1482;51.398;7.128;2023-06-10T13:51:00;10.20;;;8.30;;
2944;SDS011;1482;51.398;7.128;2023-06-10T13:53:25;8.37;;;7.60;;
2944;SDS011;1482;51.398;7.128;2023-06-10T13:55:51;8.33;;;7.70;;
2944;SDS011;1482;51.398;7.128;2023-06-10T13:58:16;13.10;;;8.63;;
2944;SDS011;1482;51.398;7.128;2023-06-10T14:00:42;10.13;;;8.80;;
2944;SDS011;1482;51.398;7.128;2023-06-10T14:03:08;9.27;;;8.57;;
2944;SDS011;1482;51.398;7.128;2023-06-10T14:05:36;9.17;;;8.30;;
2944;SDS011;1482;51.398;7.128;2023-06-10T14:08:01;11.07;;;8.00;;
2944;SDS011;1482;51.398;7.128;2023-06-10T14:10:27;8.70;;;8.00;;
2944;SDS011;1482;51.398;7.128;2023-06-10T14:12:54;8.20;;;7.50;;
2944;SDS011;1482;51.398;7.128;2023-06-10T14:15:19;8.90;;;7.37;;
2944;SDS011;1482;51.398;7.128;2023-06-10T14:17:45;7.80;;;7.10;;
2944;SDS011;1482;51.398;7.128;2023-06-10T14:20:10;8.37;;;7.57;;
2944;SDS011;1482;51.398;7.128;2023-06-10T14:22:36;7.40;;;6.80;;
2944;SDS011;1482;51.398;7.128;2023-06-10T14:25:02;9.07;;;8.10;;
2944;SDS011;1482;51.398;7.128;2023-06-10T14:27:28;12.00;;;8.53;;
2944;SDS011;1482;51.398;7.128;2023-06-10T14:29:53;7.83;;;7.17;;
2944;SDS011;1482;51.398;7.128;2023-06-10T14:32:19;8.20;;;7.50;;
2944;SDS011;1482;51.398;7.128;2023-06-10T14:34:45;9.00;;;8.00;;
2944;SDS011;1482;51.398;7.128;2023-06-10T14:37:11;9.40;;;7.77;;
2944;SDS011;1482;51.398;7.128;2023-06-10T14:39:37;10.13;;;8.03;;
2944;SDS011;1482;51.398;7.128;2023-06-10T14:42:03;8.60;;;7.57;;
2944;SDS011;1482;51.398;7.128;2023-06-10T14:44:29;10.73;;;7.77;;
2944;SDS011;1482;51.398;7.128;2023-06-10T14:46:56;8.70;;;7.90;;
2944;SDS011;1482;51.398;7.128;2023-06-10T14:49:21;8.83;;;7.67;;
2944;SDS011;1482;51.398;7.128;2023-06-10T14:51:47;9.13;;;8.20;;
2944;SDS011;1482;51.398;7.128;2023-06-10T14:54:15;7.73;;;7.07;;
2944;SDS011;1482;51.398;7.128;2023-06-10T14:56:41;9.03;;;8.30;;
2944;SDS011;1482;51.398;7.128;2023-06-10T14:59:06;9.63;;;8.70;;
2944;SDS011;1482;51.398;7.128;2023-06-10T15:01:32;9.93;;;7.33;;
2944;SDS011;1482;51.398;7.128;2023-06-10T15:03:57;9.43;;;8.37;;
2944;SDS011;1482;51.398;7.128;2023-06-10T15:06:23;9.07;;;8.23;;
2944;SDS011;1482;51.398;7.128;2023-06-10T15:08:48;9.40;;;7.70;;
2944;SDS011;1482;51.398;7.128;2023-06-10T15:11:14;8.20;;;7.33;;
2944;SDS011;1482;51.398;7.128;2023-06-10T15:13:40;8.57;;;7.87;;
2944;SDS011;1482;51.398;7.128;2023-06-10T15:16:06;13.60;;;8.20;;
2944;SDS011;1482;51.398;7.128;2023-06-10T15:18:31;8.20;;;7.50;;
2944;SDS011;1482;51.398;7.128;2023-06-10T15:20:58;10.20;;;7.40;;